Flight Track Log - Related Links

Times and Time Zones

All times are in EDT time to prevent confusion due to time zone crossing. See the EJA641 flight status page for this flight to view local times or setup timezone preferences in your user account.

Time Position Orientation Groundspeed Altitude Reporting Facility
EDT Latitude Longitude Course Direction KTS MPH feet Rate Location/Type
Sun 08:53:41 AM 32.3833 -96.9167 77° East 194 223 4,000  Level Dallas / Fort Worth TRACON
Sun 08:55:06 AM 32.4208 -96.8278 63° Northeast 275 316 4,000 786 Level Fort Worth Center
Sun 08:56:06 AM 32.4706 -96.7683 45° Northeast 263 303 5,900 2,000 Climbing Fort Worth Center
Sun 08:57:06 AM 32.5161 -96.7014 51° Northeast 258 297 8,000 2,000 Climbing Fort Worth Center
Sun 08:58:06 AM 32.5700 -96.6294 48° Northeast 274 315 9,900 1,550 Climbing Fort Worth Center
Sun 08:59:00 AM 32.6868 -96.0493 77° East  Level FlightAware Approximate
Sun 08:59:06 AM 32.6319 -96.5450 49° Northeast 319 367 11,100  Level Fort Worth Center
Sun 09:00:06 AM 32.6919 -96.4606 50° Northeast 329 379 13,600 2,650 Climbing Fort Worth Center
Sun 09:01:06 AM 32.7519 -96.3736 51° Northeast 336 387 16,400 2,500 Climbing Fort Worth Center
Sun 09:02:06 AM 32.8094 -96.2789 54° Northeast 347 399 18,600 2,550 Climbing Fort Worth Center
Sun 09:03:06 AM 32.8606 -96.1719 60° Northeast 362 417 21,500 2,650 Climbing Fort Worth Center
Sun 09:04:06 AM 32.8719 -96.0406 84° East 368 423 23,900 2,250 Climbing Fort Worth Center
Sun 09:05:06 AM 32.8725 -95.9144 90° East 377 434 26,000 1,950 Climbing Fort Worth Center
Sun 09:06:06 AM 32.8750 -95.7758 89° East 396 456 27,800 1,700 Climbing Fort Worth Center
Sun 09:07:06 AM 32.8772 -95.6300 89° East 420 483 29,400 1,350 Climbing Fort Worth Center
Sun 09:08:06 AM 32.8811 -95.4814 88° East 440 506 30,500 1,050 Climbing Fort Worth Center
Sun 09:09:06 AM 32.8892 -95.3256 86° East 464 534 31,500 950 Climbing Fort Worth Center
Sun 09:10:06 AM 32.9033 -95.1842 83° East 469 540 32,400 950 Climbing Fort Worth Center
Sun 09:11:06 AM 32.9297 -95.0275 79° East 475 547 33,400 950 Climbing Fort Worth Center
Sun 09:12:06 AM 32.9539 -94.8658 80° East 486 559 34,300 950 Climbing Fort Worth Center
Sun 09:13:06 AM 32.9775 -94.7042 80° East 486 559 35,300 1,250 Climbing Fort Worth Center
Sun 09:14:06 AM 33.0033 -94.5450 79° East 486 559 36,800 1,600 Climbing Fort Worth Center
Sun 09:15:06 AM 33.0247 -94.3931 80° East 481 554 38,500 1,450 Climbing Fort Worth Center
Sun 09:16:06 AM 33.0461 -94.2486 80° East 458 527 39,700 1,050 Climbing Fort Worth Center
Sun 09:17:06 AM 33.0675 -94.1017 80° East 445 512 40,600 650 Climbing Fort Worth Center
Sun 09:18:06 AM 33.0867 -93.9597 81° East 440 506 41,000 200 Climbing Fort Worth Center
Sun 09:19:06 AM 33.1072 -93.8075 81° East 440 506 41,000  Level Fort Worth Center
Sun 09:20:06 AM 33.1322 -93.6553 79° East 456 525 41,000  Level Fort Worth Center
Sun 09:21:06 AM 33.1547 -93.5031 80° East 462 532 41,000  Level Fort Worth Center
Sun 09:22:06 AM 33.1767 -93.3433 81° East 469 540 41,000  Level Fort Worth Center
Sun 09:23:06 AM 33.1986 -93.1883 80° East 469 540 41,000  Level Fort Worth Center
Sun 09:24:06 AM 33.2203 -93.0283 81° East 474 545 41,000  Level Fort Worth Center
Sun 09:25:06 AM 33.2397 -92.8711 82° East 474 545 41,000  Level Fort Worth Center
Sun 09:26:06 AM 33.2528 -92.7114 84° East 474 545 41,000  Level Fort Worth Center
Sun 09:28:34 AM 33.1700 -92.3203 104° East 464 534 41,000  Level Memphis Center
Sun 09:29:34 AM 33.1392 -92.1658 103° East 471 542 41,000  Level Memphis Center
Sun 09:30:34 AM 33.1014 -92.0114 106° East 471 542 41,000  Level Memphis Center
Sun 09:31:34 AM 33.0681 -91.8569 104° East 477 549 41,000  Level Memphis Center
Sun 09:32:34 AM 33.0342 -91.7053 105° East 477 549 41,000  Level Memphis Center
Sun 09:33:34 AM 33.0025 -91.5486 104° East 477 549 41,000  Level Memphis Center
Sun 09:34:34 AM 32.9703 -91.3972 104° East 477 549 41,000  Level Memphis Center
Sun 09:35:34 AM 32.9381 -91.2458 104° East 470 541 41,000  Level Memphis Center
Sun 09:36:34 AM 32.9014 -91.0947 106° East 470 541 41,000  Level Memphis Center
Sun 09:37:34 AM 32.8689 -90.9436 104° East 475 547 41,000  Level Memphis Center
Sun 09:38:34 AM 32.8361 -90.7925 104° East 475 547 41,000  Level Memphis Center
Sun 09:39:34 AM 32.8053 -90.6389 103° East 475 547 41,000  Level Memphis Center
Sun 09:40:34 AM 32.7700 -90.4908 106° East 470 541 41,000  Level Memphis Center
Sun 09:41:34 AM 32.7344 -90.3375 105° East 470 541 41,000  Level Memphis Center
Sun 09:42:34 AM 32.7011 -90.1869 105° East 470 541 41,000  Level Memphis Center
Sun 09:43:34 AM 32.6653 -90.0339 106° East 470 541 41,000  Level Memphis Center
Sun 09:44:34 AM 32.6356 -89.8958 104° East 470 541 41,000  Level Memphis Center
Sun 09:45:34 AM 32.5994 -89.7383 105° East 476 548 41,000  Level Memphis Center
Sun 09:46:34 AM 32.5631 -89.5833 106° East 476 548 41,000  Level Memphis Center
Sun 09:47:34 AM 32.5264 -89.4258 105° East 484 557 41,000  Level Memphis Center
Sun 09:48:34 AM 32.4897 -89.2686 105° East 489 563 41,000  Level Memphis Center
Sun 09:49:34 AM 32.4528 -89.1117 106° East 494 568 41,000  Level Memphis Center
Sun 09:50:34 AM 32.4156 -88.9544 106° East 494 568 41,000  Level Memphis Center
Sun 09:51:34 AM 32.3803 -88.7978 105° East 488 562 41,000  Level Memphis Center
Sun 09:53:40 AM 32.3586 -88.4525 94° East 501 577 41,000  Level Atlanta Center
Sun 09:54:40 AM 32.3494 -88.2922 94° East 501 577 41,000  Level Atlanta Center
Sun 09:55:40 AM 32.3428 -88.1247 93° East 501 577 41,000  Level Atlanta Center
Sun 09:56:40 AM 32.3333 -87.9619 94° East 501 577 41,000  Level Atlanta Center
Sun 09:57:40 AM 32.3217 -87.7992 95° East 501 577 41,000  Level Atlanta Center
Sun 09:58:40 AM 32.3142 -87.6344 93° East 501 577 41,000  Level Atlanta Center
Sun 09:59:40 AM 32.3042 -87.4742 94° East 496 571 41,000  Level Atlanta Center
Sun 10:00:40 AM 32.2883 -87.2894 96° East 506 582 41,000  Level Atlanta Center
Sun 10:01:40 AM 32.2800 -87.1269 93° East 506 582 41,000  Level Atlanta Center
Sun 10:02:40 AM 32.2797 -86.9647 90° East 500 575 41,000  Level Atlanta Center
Sun 10:03:40 AM 32.2939 -86.8006 84° East 494 568 41,000  Level Atlanta Center
Sun 10:04:40 AM 32.3117 -86.6586 82° East 494 568 41,000  Level Atlanta Center
Sun 10:05:40 AM 32.3233 -86.4967 85° East 494 568 41,000  Level Atlanta Center
Sun 10:06:40 AM 32.3267 -86.3150 89° East 501 577 41,000  Level Atlanta Center
Sun 10:07:40 AM 32.3400 -86.1531 84° East 495 570 41,000  Level Atlanta Center
Sun 10:08:40 AM 32.3531 -85.9911 85° East 495 570 41,000  Level Atlanta Center
Sun 10:09:40 AM 32.3681 -85.8292 84° East 495 570 41,000  Level Atlanta Center
Sun 10:10:40 AM 32.3808 -85.6769 84° East 506 582 41,000  Level Atlanta Center
Sun 10:11:40 AM 32.3911 -85.5147 86° East 506 582 41,000  Level Atlanta Center
Sun 10:12:40 AM 32.4033 -85.3500 85° East 500 575 41,000  Level Atlanta Center
Sun 10:13:40 AM 32.4156 -85.1878 85° East 500 575 41,000  Level Atlanta Center
Sun 10:14:40 AM 32.4336 -85.0256 82° East 500 575 41,000  Level Atlanta Center
Sun 10:15:40 AM 32.4369 -84.8633 89° East 500 575 41,000  Level Atlanta Center
Sun 10:16:40 AM 32.4525 -84.6886 84° East 494 568 41,000  Level Atlanta Center
Sun 10:17:40 AM 32.4636 -84.5286 85° East 494 568 41,000  Level Atlanta Center
Sun 10:18:40 AM 32.4747 -84.3664 85° East 494 568 41,000  Level Atlanta Center
Sun 10:19:40 AM 32.4833 -84.1989 86° East 494 568 41,000  Level Atlanta Center
Sun 10:20:40 AM 32.4939 -84.0414 85° East 494 568 41,000  Level Atlanta Center
Sun 10:21:40 AM 32.4978 -83.8789 88° East 494 568 41,000 -350 Level Atlanta Center
Sun 10:22:40 AM 32.4933 -83.7139 92° East 494 568 40,300 -800 Descending Atlanta Center
Sun 10:23:40 AM 32.4908 -83.5733 91° East 489 563 39,400 -950 Descending Atlanta Center
Sun 10:24:40 AM 32.4881 -83.4083 91° East 489 563 38,400 -1,000 Descending Atlanta Center
Sun 10:25:40 AM 32.4808 -83.2508 93° East 489 563 37,400 -1,050 Descending Atlanta Center
Sun 10:26:40 AM 32.4778 -83.0933 91° East 478 550 36,300 -1,150 Descending Atlanta Center
Sun 10:27:40 AM 32.4722 -82.9383 92° East 472 543 35,100 -1,600 Descending Atlanta Center
Sun 10:28:40 AM 32.4686 -82.7758 91° East 477 549 33,100 -1,943 Descending Atlanta Center
Sun 10:32:21 AM 32.4486 -82.1886 92° East 476 548 26,000 -1,521 Descending Jacksonville Center
Sun 10:33:20 AM 32.4456 -82.0333 91° East 470 541 26,000 -50 Level Jacksonville Center
Sun 10:34:20 AM 32.4403 -81.9031 93° East 454 522 25,900 -595 Descending Jacksonville Center
Sun 10:35:21 AM 32.4347 -81.7283 92° East 466 536 24,800 -1,000 Descending Jacksonville Center
Sun 10:36:20 AM 32.4269 -81.5733 93° East 471 542 23,900 -1,261 Descending Jacksonville Center
Sun 10:37:20 AM 32.4422 -81.4403 82° East 458 527 22,300 -1,700 Descending Jacksonville Center
Sun 10:38:20 AM 32.4672 -81.2822 79° East 447 514 20,500 -1,700 Descending Jacksonville Center
Sun 10:39:20 AM 32.4947 -81.1439 77° East 428 493 18,900 -1,250 Descending Jacksonville Center
Sun 10:40:20 AM 32.5158 -81.0203 79° East 423 487 18,000 -1,200 Descending Jacksonville Center
Sun 10:41:20 AM 32.5389 -80.8917 78° East 412 474 16,500 -1,650 Descending Jacksonville Center
Sun 10:42:20 AM 32.5600 -80.7656 79° East 398 458 14,700 -1,600 Descending Jacksonville Center
Sun 10:43:20 AM 32.5808 -80.6442 78° East 386 444 13,300 -1,400 Descending Jacksonville Center
Sun 10:44:20 AM 32.6017 -80.5228 78° East 376 433 11,900 -1,300 Descending Jacksonville Center
Sun 10:45:20 AM 32.6350 -80.4158 70° East 357 411 10,700 -1,350 Descending Jacksonville Center
Sun 10:46:20 AM 32.7006 -80.3547 38° Northeast 310 357 9,200 -1,700 Descending Jacksonville Center
Sun 10:47:20 AM 32.7642 -80.3036 34° Northeast 283 326 7,300 -1,537 Descending Jacksonville Center
Sun 10:48:21 AM 32.7833 -80.2239 74° East 241 277 6,100 1,835 Descending Jacksonville Center
Sun 10:49:21 AM 32.8194 -80.1536 59° Northeast 241 277 11,000 2,471 Climbing Jacksonville Center
Sun 10:50:20 AM 32.8536 -80.0858 59° Northeast 241 277 11,000  Level Jacksonville Center
Sun 10:51:20 AM 32.8894 -80.0156 59° Northeast 241 277 11,000  Level Jacksonville Center
Sun 10:52:20 AM 32.9094 -79.9753 59° Northeast 241 277 11,000  Level Jacksonville Center
Sun 10:54:00 AM 32.7080 -80.0023 180° South  Level Estimated
Sun 11:01:00 AM 32.7000 -80.0000 180° South  Level FlightAware Approximate
Sun 11:02:00 AM 32.7010 -80.0033 180° South  Level Estimated
Sun 11:03:00 AM 32.7000 -80.0000 180° South  Level FlightAware Approximate
Sun 11:04:00 AM 32.7010 -80.0033 180° South  Level Estimated
Sun 11:05:00 AM 32.7000 -80.0000 180° South  Level FlightAware Approximate
Sun 11:06:00 AM 32.7010 -80.0033 180° South  Level Estimated
Sun 11:07:00 AM 32.7000 -80.0000 180° South  Level FlightAware Approximate
Sun 11:08:00 AM 32.7010 -80.0033 180° South  Level Estimated
Sun 11:09:00 AM 32.7000 -80.0000 180° South  Level FlightAware Approximate
Sun 11:10:00 AM 32.7010 -80.0033 180° South  Level Estimated

Login

Don't have an account? Register now (free) for customized features, flight alerts, and more!